Haukur — OZ2119 — position and weather

sailwx.info

Track history (hours):
 
Tides and Currents Weather Stations Pressure Air Temp Water Temp Dewpoint Dewpoint Depression Visibility Wind Speed Wind Dir Waves Ship Positions

Haukur

Last reported at 2014-Sep-01 23:33 UTC. Time now 2014-Sep-03 07:27 UTC.
Position N 58°22' E 005°29'.

Length 75 m; draft 5.9 m.

Type: Cargo ship. MMSI: 231812000.

Date/timePositionNaut miles runAvg speedWind from/ knotsBaromVisibWave heightAir tempDewpointWater temp
2014-Sep-01 23:33N 58°22' E 005°29'10 9.8
2014-Sep-01 22:32N 58°17' E 005°45'1010.3
2014-Sep-01 21:33N 58°12' E 006°01'129 9.1
2014-Sep-01 07:31N 57°50' E 010°00'8 8.2
2014-Sep-01 06:33N 57°49' E 010°15'8 8.3
2014-Sep-01 05:33N 57°49' E 010°30'9 8.5
2014-Sep-01 04:33N 57°49' E 010°46'9 8.8
2014-Sep-01 03:33N 57°43' E 010°58'9 9.0
2014-Sep-01 02:33N 57°37' E 011°10'9 9.1
2014-Sep-01 01:33N 57°30' E 011°22'9 9.0
2014-Sep-01 00:33N 57°23' E 011°31'9 9.1
2014-Aug-31 23:33N 57°14' E 011°37'43 8.6
2014-Aug-31 18:31N 56°35' E 012°10'8 8.5
2014-Aug-31 17:33N 56°27' E 012°16'10 9.5
2014-Aug-31 16:33N 56°19' E 012°23'10 9.7
2014-Aug-31 15:33N 56°10' E 012°30'1010.2
2014-Aug-31 14:33N 56°01' E 012°41'9 8.9
2014-Aug-31 13:33N 55°53' E 012°44'9 8.5
2014-Aug-31 12:33N 55°44' E 012°41'9 9.4
2014-Aug-31 11:33N 55°35' E 012°42'8 8.3
2014-Aug-31 10:33N 55°27' E 012°42'8 8.1
2014-Aug-31 09:33N 55°18' E 012°41'9 8.7
2014-Aug-31 08:33N 55°16' E 012°56'9 8.9
2014-Aug-31 07:33N 55°15' E 013°11'9 8.8
2014-Aug-31 06:33N 55°15' E 013°27'9 9.2
2014-Aug-31 05:33N 55°14' E 013°43'9 9.3
2014-Aug-31 04:33N 55°14' E 013°59'9 9.0
2014-Aug-31 03:33N 55°13' E 014°15'8 8.4
2014-Aug-31 02:33N 55°20' E 014°25'9 8.8
2014-Aug-31 01:33N 55°26' E 014°35'8 8.5
2014-Aug-31 00:33N 55°31' E 014°48'8 8.0
2014-Aug-30 23:33N 55°35' E 014°60'8 8.4
2014-Aug-30 22:33N 55°39' E 015°13'110 8.4
2014-Aug-30 09:33N 56°40' E 017°57'12 8.3
2014-Aug-30 08:09N 56°46' E 018°14'6 8.9
2014-Aug-30 07:28N 56°50' E 018°23'8 8.8
2014-Aug-30 06:33N 56°54' E 018°36'9 8.7
2014-Aug-30 05:33N 56°57' E 018°51'9 8.9
2014-Aug-30 04:32N 57°01' E 019°06'  
2014-Aug-25 00:26N 55°25' E 015°00'910.7
2014-Aug-24 23:34N 55°24' E 014°44'1010.4
2014-Aug-24 22:33N 55°17' E 014°29'1010.1
2014-Aug-24 21:31N 55°10' E 014°16'2310.6
2014-Aug-24 19:22N 55°12' E 013°36'911.2
2014-Aug-24 18:34N 55°13' E 013°20'1211.6
2014-Aug-24 17:33N 55°14' E 012°60'1111.0
2014-Aug-24 16:34N 55°17' E 012°41'9 9.1
2014-Aug-24 15:33N 55°26' E 012°40'1010.3
2014-Aug-24 14:34N 55°36' E 012°42'1010.4
2014-Aug-24 13:34N 55°47' E 012°41'1010.0
2014-Aug-24 12:34N 55°57' E 012°37'9 9.2
2014-Aug-24 11:34N 56°06' E 012°34'1110.7
2014-Aug-24 10:34N 56°12' E 012°18'1111.2
2014-Aug-24 09:34N 56°10' E 011°58'  
Track history (hours):
 
Tides and Currents Weather Stations Pressure Air Temp Water Temp Dewpoint Dewpoint Depression Visibility Wind Speed Wind Dir Waves Ship Positions

Haukur

Last reported at 2014-Sep-01 23:33 UTC. Time now 2014-Sep-03 07:27 UTC.
Position N 58°22' E 005°29'.

Length 75 m; draft 5.9 m.

Type: Cargo ship. MMSI: 231812000.

Date/timePositionNaut miles runAvg speedWind from/ knotsBaromVisibWave heightAir tempDewpointWater temp
2014-Sep-01 23:33N 58°22' E 005°29'10 9.8
2014-Sep-01 22:32N 58°17' E 005°45'1010.3
2014-Sep-01 21:33N 58°12' E 006°01'129 9.1
2014-Sep-01 07:31N 57°50' E 010°00'8 8.2
2014-Sep-01 06:33N 57°49' E 010°15'8 8.3
2014-Sep-01 05:33N 57°49' E 010°30'9 8.5
2014-Sep-01 04:33N 57°49' E 010°46'9 8.8
2014-Sep-01 03:33N 57°43' E 010°58'9 9.0
2014-Sep-01 02:33N 57°37' E 011°10'9 9.1
2014-Sep-01 01:33N 57°30' E 011°22'9 9.0
2014-Sep-01 00:33N 57°23' E 011°31'9 9.1
2014-Aug-31 23:33N 57°14' E 011°37'43 8.6
2014-Aug-31 18:31N 56°35' E 012°10'8 8.5
2014-Aug-31 17:33N 56°27' E 012°16'10 9.5
2014-Aug-31 16:33N 56°19' E 012°23'10 9.7
2014-Aug-31 15:33N 56°10' E 012°30'1010.2
2014-Aug-31 14:33N 56°01' E 012°41'9 8.9
2014-Aug-31 13:33N 55°53' E 012°44'9 8.5
2014-Aug-31 12:33N 55°44' E 012°41'9 9.4
2014-Aug-31 11:33N 55°35' E 012°42'8 8.3
2014-Aug-31 10:33N 55°27' E 012°42'8 8.1
2014-Aug-31 09:33N 55°18' E 012°41'9 8.7
2014-Aug-31 08:33N 55°16' E 012°56'9 8.9
2014-Aug-31 07:33N 55°15' E 013°11'9 8.8
2014-Aug-31 06:33N 55°15' E 013°27'9 9.2
2014-Aug-31 05:33N 55°14' E 013°43'9 9.3
2014-Aug-31 04:33N 55°14' E 013°59'9 9.0
2014-Aug-31 03:33N 55°13' E 014°15'8 8.4
2014-Aug-31 02:33N 55°20' E 014°25'9 8.8
2014-Aug-31 01:33N 55°26' E 014°35'8 8.5
2014-Aug-31 00:33N 55°31' E 014°48'8 8.0
2014-Aug-30 23:33N 55°35' E 014°60'8 8.4
2014-Aug-30 22:33N 55°39' E 015°13'110 8.4
2014-Aug-30 09:33N 56°40' E 017°57'12 8.3
2014-Aug-30 08:09N 56°46' E 018°14'6 8.9
2014-Aug-30 07:28N 56°50' E 018°23'8 8.8
2014-Aug-30 06:33N 56°54' E 018°36'9 8.7
2014-Aug-30 05:33N 56°57' E 018°51'9 8.9
2014-Aug-30 04:32N 57°01' E 019°06'  
2014-Aug-25 00:26N 55°25' E 015°00'910.7
2014-Aug-24 23:34N 55°24' E 014°44'1010.4
2014-Aug-24 22:33N 55°17' E 014°29'1010.1
2014-Aug-24 21:31N 55°10' E 014°16'2310.6
2014-Aug-24 19:22N 55°12' E 013°36'911.2
2014-Aug-24 18:34N 55°13' E 013°20'1211.6
2014-Aug-24 17:33N 55°14' E 012°60'1111.0
2014-Aug-24 16:34N 55°17' E 012°41'9 9.1
2014-Aug-24 15:33N 55°26' E 012°40'1010.3
2014-Aug-24 14:34N 55°36' E 012°42'1010.4
2014-Aug-24 13:34N 55°47' E 012°41'1010.0
2014-Aug-24 12:34N 55°57' E 012°37'9 9.2
2014-Aug-24 11:34N 56°06' E 012°34'1110.7
2014-Aug-24 10:34N 56°12' E 012°18'1111.2
2014-Aug-24 09:34N 56°10' E 011°58'  

Dump ship's entire track history